createdAt,value
2018-05-31T00:00:44.572Z,26.70
2018-05-31T00:03:12.920Z,26.60
2018-05-31T00:05:41.942Z,26.60
2018-05-31T00:08:10.167Z,26.60
2018-05-31T00:10:38.483Z,26.60
2018-05-31T00:13:06.706Z,26.50
2018-05-31T00:15:34.942Z,26.30
2018-05-31T00:18:03.167Z,25.80
2018-05-31T00:20:32.900Z,25.00
2018-05-31T00:23:01.906Z,24.70
2018-05-31T00:25:30.902Z,24.70
2018-05-31T00:27:59.202Z,24.70
2018-05-31T00:30:27.456Z,24.70
2018-05-31T00:32:56.446Z,24.60
2018-05-31T00:35:24.672Z,24.50
2018-05-31T00:37:52.920Z,24.00
2018-05-31T00:40:21.176Z,23.40
2018-05-31T00:42:49.562Z,22.90
2018-05-31T00:45:17.834Z,22.80
2018-05-31T00:47:46.056Z,22.80
2018-05-31T00:50:14.560Z,23.10
2018-05-31T00:52:43.556Z,23.90
2018-05-31T00:55:12.538Z,24.10
2018-05-31T00:57:41.581Z,24.20
2018-05-31T01:00:10.135Z,24.20
2018-05-31T01:02:38.404Z,24.20
2018-05-31T01:05:06.617Z,24.30
2018-05-31T01:07:34.845Z,24.30
2018-05-31T01:10:04.215Z,24.20
2018-05-31T01:12:32.491Z,24.20
2018-05-31T01:15:01.296Z,24.20
2018-05-31T01:17:29.544Z,24.20
2018-05-31T01:19:57.741Z,24.10
2018-05-31T01:22:25.973Z,24.30
2018-05-31T01:24:54.185Z,24.40
2018-05-31T01:27:22.413Z,24.30
2018-05-31T01:29:50.633Z,24.30
2018-05-31T01:32:18.873Z,24.40
2018-05-31T01:34:47.092Z,24.40
2018-05-31T01:37:16.104Z,24.00
2018-05-31T01:39:45.074Z,23.80
2018-05-31T01:42:14.071Z,23.70
2018-05-31T01:44:43.043Z,23.90
2018-05-31T01:47:11.353Z,23.90
2018-05-31T01:49:39.597Z,23.60
2018-05-31T01:52:08.587Z,23.80
2018-05-31T01:54:36.901Z,23.80
2018-05-31T01:57:05.122Z,23.90
2018-05-31T01:59:33.333Z,23.80
2018-05-31T02:02:02.321Z,23.80
2018-05-31T02:04:34.365Z,23.70
2018-05-31T02:07:02.591Z,23.70
2018-05-31T02:09:30.802Z,23.80
2018-05-31T02:11:59.096Z,23.90
2018-05-31T02:14:27.301Z,23.90
2018-05-31T02:16:55.585Z,23.80
2018-05-31T02:19:23.823Z,23.90
2018-05-31T02:21:52.147Z,23.90
2018-05-31T02:24:20.386Z,23.70
2018-05-31T02:26:49.368Z,23.70
2018-05-31T02:29:18.408Z,23.70
2018-05-31T02:31:46.671Z,23.70
2018-05-31T02:34:15.066Z,23.70
2018-05-31T02:36:43.296Z,23.70
2018-05-31T02:39:12.290Z,23.80
2018-05-31T02:41:41.281Z,23.80
2018-05-31T02:44:10.278Z,23.70
2018-05-31T02:46:39.260Z,23.70
2018-05-31T02:49:08.256Z,23.70
2018-05-31T02:51:37.233Z,23.60
2018-05-31T02:54:05.540Z,23.60
2018-05-31T02:56:33.760Z,23.60
2018-05-31T02:59:01.996Z,23.40
2018-05-31T03:01:30.226Z,23.40
2018-05-31T03:03:58.535Z,23.40
2018-05-31T03:06:26.813Z,23.40
2018-05-31T03:08:55.061Z,23.40
2018-05-31T03:11:23.276Z,23.30
2018-05-31T03:13:51.543Z,23.20
2018-05-31T03:16:19.767Z,23.20
2018-05-31T03:18:48.000Z,23.20
2018-05-31T03:21:16.204Z,23.20
2018-05-31T03:23:45.373Z,23.10
2018-05-31T03:26:13.648Z,23.10
2018-05-31T03:28:41.879Z,23.10
2018-05-31T03:31:10.164Z,23.10
2018-05-31T03:33:39.173Z,23.10
2018-05-31T03:36:07.382Z,23.10
2018-05-31T03:38:36.443Z,23.10
2018-05-31T03:41:04.648Z,23.10
2018-05-31T03:43:32.866Z,23.10
2018-05-31T03:46:01.854Z,23.00
2018-05-31T03:48:30.828Z,23.00
2018-05-31T03:50:59.069Z,22.90
2018-05-31T03:53:27.324Z,23.00
2018-05-31T03:55:55.552Z,22.90
2018-05-31T03:58:23.770Z,22.80
2018-05-31T04:00:52.045Z,22.90
2018-05-31T04:03:20.284Z,22.90
2018-05-31T04:05:48.525Z,22.90
2018-05-31T04:08:16.740Z,22.90
2018-05-31T04:10:44.957Z,22.80
2018-05-31T04:13:13.228Z,22.90
2018-05-31T04:15:41.468Z,22.80
2018-05-31T04:18:10.449Z,22.80
2018-05-31T04:20:38.667Z,22.80
2018-05-31T04:23:07.711Z,22.80
2018-05-31T04:25:35.941Z,22.80
2018-05-31T04:28:04.153Z,22.80
2018-05-31T04:30:32.381Z,22.90
2018-05-31T04:33:00.615Z,22.80
2018-05-31T04:35:28.829Z,22.90
2018-05-31T04:37:57.037Z,22.90
2018-05-31T04:40:25.264Z,22.90
2018-05-31T04:42:54.273Z,22.90
2018-05-31T04:45:22.540Z,22.80
2018-05-31T04:47:50.813Z,22.80
2018-05-31T04:50:19.028Z,22.80
2018-05-31T04:52:47.236Z,22.90
2018-05-31T04:55:16.231Z,22.90
2018-05-31T04:57:45.983Z,22.90
2018-05-31T05:00:14.373Z,22.90
2018-05-31T05:02:42.617Z,23.00
2018-05-31T05:05:10.829Z,23.00
2018-05-31T05:07:39.057Z,23.10
2018-05-31T05:10:07.495Z,23.10
2018-05-31T05:12:36.548Z,23.30
2018-05-31T05:15:04.774Z,23.30
2018-05-31T05:17:33.083Z,23.30
2018-05-31T05:20:01.304Z,23.40
2018-05-31T05:22:29.525Z,23.50
2018-05-31T05:24:58.510Z,22.90
2018-05-31T05:27:27.541Z,23.20
2018-05-31T05:29:55.828Z,23.20
2018-05-31T05:32:24.050Z,23.50
2018-05-31T05:34:53.041Z,23.60
2018-05-31T05:37:22.025Z,23.80
2018-05-31T05:39:51.022Z,24.00
2018-05-31T05:42:23.069Z,24.10
2018-05-31T05:44:51.411Z,24.00
2018-05-31T05:47:20.432Z,24.20
2018-05-31T05:49:48.878Z,24.20
2018-05-31T05:52:17.424Z,24.50
2018-05-31T05:54:45.617Z,24.70
2018-05-31T05:57:13.896Z,23.90
2018-05-31T05:59:42.181Z,23.40
2018-05-31T06:02:10.414Z,23.60
2018-05-31T06:04:38.616Z,23.70
2018-05-31T06:07:06.845Z,24.10
2018-05-31T06:09:35.063Z,24.30
2018-05-31T06:12:03.300Z,24.40
2018-05-31T06:14:31.497Z,24.60
2018-05-31T06:17:00.504Z,24.80
2018-05-31T06:19:28.779Z,24.80
2018-05-31T06:21:57.002Z,24.90
2018-05-31T06:24:25.216Z,25.00
2018-05-31T06:26:53.445Z,24.50
2018-05-31T06:29:21.684Z,24.80
2018-05-31T06:31:49.945Z,25.10
2018-05-31T06:34:18.152Z,25.30
2018-05-31T06:36:46.436Z,25.40
2018-05-31T06:39:14.644Z,25.60
2018-05-31T06:41:44.842Z,25.50
2018-05-31T06:44:13.413Z,25.50
2018-05-31T06:46:41.641Z,25.60
2018-05-31T06:49:09.864Z,25.70
2018-05-31T06:51:38.099Z,25.90
2018-05-31T06:54:06.408Z,25.90
2018-05-31T06:56:34.638Z,26.00
2018-05-31T06:59:03.590Z,26.10
2018-05-31T07:01:32.630Z,26.10
2018-05-31T07:04:00.861Z,26.10
2018-05-31T07:06:29.094Z,25.90
2018-05-31T07:08:57.447Z,26.10
2018-05-31T07:11:25.692Z,26.20
2018-05-31T07:13:54.106Z,26.20
2018-05-31T07:16:22.306Z,26.20
2018-05-31T07:18:50.540Z,26.30
2018-05-31T07:21:19.507Z,26.30
2018-05-31T07:23:47.813Z,26.20
2018-05-31T07:26:16.829Z,25.70
2018-05-31T07:28:45.058Z,25.70
2018-05-31T07:31:13.307Z,25.80
2018-05-31T07:33:41.543Z,25.00
2018-05-31T07:36:09.756Z,25.10
2018-05-31T07:38:38.000Z,25.30
2018-05-31T07:41:07.001Z,26.10
2018-05-31T07:43:35.328Z,26.10
2018-05-31T07:46:03.549Z,26.30
2018-05-31T07:48:31.773Z,26.60
2018-05-31T07:51:00.770Z,26.70
2018-05-31T07:53:29.799Z,26.90
2018-05-31T07:55:58.020Z,26.80
2018-05-31T07:58:26.271Z,27.00
2018-05-31T08:00:54.476Z,27.10
2018-05-31T08:03:23.705Z,27.20
2018-05-31T08:05:52.008Z,27.30
2018-05-31T08:08:20.236Z,27.30
2018-05-31T08:10:49.223Z,27.10
2018-05-31T08:13:17.462Z,27.10
2018-05-31T08:15:45.672Z,25.30
2018-05-31T08:18:14.669Z,24.80
2018-05-31T08:20:43.666Z,25.20
2018-05-31T08:23:12.139Z,25.20
2018-05-31T08:25:41.122Z,25.10
2018-05-31T08:28:09.426Z,25.10
2018-05-31T08:30:37.663Z,25.40
2018-05-31T08:33:05.930Z,25.40
2018-05-31T08:35:34.140Z,25.20
2018-05-31T08:38:03.162Z,25.60
2018-05-31T08:40:31.370Z,25.50
2018-05-31T08:42:59.724Z,26.10
2018-05-31T08:45:28.005Z,25.80
2018-05-31T08:47:56.236Z,25.50
2018-05-31T08:50:25.215Z,25.30
2018-05-31T08:52:54.234Z,25.90
2018-05-31T08:55:22.488Z,25.80
2018-05-31T08:57:51.490Z,26.60
2018-05-31T09:00:20.463Z,26.80
2018-05-31T09:02:48.709Z,26.70
2018-05-31T09:05:17.249Z,26.70
2018-05-31T09:07:45.527Z,26.70
2018-05-31T09:10:14.040Z,25.80
2018-05-31T09:12:42.589Z,25.30
2018-05-31T09:15:10.855Z,25.60
2018-05-31T09:17:39.244Z,25.50
2018-05-31T09:20:07.877Z,25.40
2018-05-31T09:22:36.881Z,25.50
2018-05-31T09:25:05.130Z,25.50
2018-05-31T09:27:33.345Z,25.50
2018-05-31T09:30:02.626Z,26.10
2018-05-31T09:32:30.847Z,26.10
2018-05-31T09:34:59.097Z,26.10
2018-05-31T09:37:28.753Z,25.90
2018-05-31T09:39:56.995Z,25.90
2018-05-31T09:42:25.214Z,26.10
2018-05-31T09:44:53.596Z,26.30
2018-05-31T09:47:21.835Z,26.50
2018-05-31T09:49:50.077Z,26.00
2018-05-31T09:52:19.075Z,25.90
2018-05-31T09:54:48.099Z,25.90
2018-05-31T09:57:16.332Z,25.80
2018-05-31T09:59:44.666Z,26.10
2018-05-31T10:02:12.894Z,26.10
2018-05-31T10:04:41.901Z,26.00
2018-05-31T10:07:10.129Z,26.00
2018-05-31T10:09:38.390Z,26.20
2018-05-31T10:12:06.762Z,25.90
2018-05-31T10:14:35.011Z,26.30
2018-05-31T10:17:04.018Z,26.60
2018-05-31T10:19:32.258Z,26.60
2018-05-31T10:22:01.353Z,26.40
2018-05-31T10:24:29.557Z,26.40
2018-05-31T10:26:57.787Z,26.40
2018-05-31T10:29:27.791Z,26.40
2018-05-31T10:31:56.785Z,26.40
2018-05-31T10:34:25.051Z,26.30
2018-05-31T10:36:54.810Z,26.40
2018-05-31T10:39:23.095Z,26.40
2018-05-31T10:41:51.924Z,26.20
2018-05-31T10:44:20.877Z,26.60
2018-05-31T10:46:49.083Z,27.10
2018-05-31T10:49:17.408Z,27.30
2018-05-31T10:51:46.385Z,27.20
2018-05-31T10:54:14.605Z,27.30
2018-05-31T10:56:42.891Z,27.00
2018-05-31T10:59:11.205Z,27.30
2018-05-31T11:01:39.391Z,27.10
2018-05-31T11:04:07.697Z,26.90
2018-05-31T11:06:35.962Z,27.20
2018-05-31T11:09:04.920Z,27.30
2018-05-31T11:11:33.957Z,27.70
2018-05-31T11:14:02.181Z,27.80
2018-05-31T11:16:30.402Z,27.90
2018-05-31T11:18:58.618Z,27.40
2018-05-31T11:21:26.884Z,27.20
2018-05-31T11:23:55.163Z,27.20
2018-05-31T11:26:23.351Z,27.10
2018-05-31T11:28:51.674Z,27.40
2018-05-31T11:31:20.005Z,27.50
2018-05-31T11:33:48.652Z,27.70
2018-05-31T11:36:16.890Z,27.50
2018-05-31T11:38:45.123Z,27.20
2018-05-31T11:41:13.450Z,27.10
2018-05-31T11:43:41.660Z,27.10
2018-05-31T11:46:09.892Z,27.20
2018-05-31T11:48:38.196Z,27.30
2018-05-31T11:51:06.457Z,27.40
2018-05-31T11:53:34.669Z,27.50
2018-05-31T11:56:02.889Z,27.40
2018-05-31T11:58:31.113Z,27.30
2018-05-31T12:00:59.413Z,27.40
2018-05-31T12:03:28.404Z,27.70
2018-05-31T12:05:57.397Z,27.70
2018-05-31T12:08:26.448Z,27.70
2018-05-31T12:10:54.702Z,27.60
2018-05-31T12:13:22.889Z,27.60
2018-05-31T12:15:51.542Z,27.90
2018-05-31T12:18:19.778Z,27.90
2018-05-31T12:20:47.988Z,28.10
2018-05-31T12:23:17.077Z,27.90
2018-05-31T12:25:46.239Z,27.60
2018-05-31T12:28:14.527Z,27.60
2018-05-31T12:30:42.974Z,27.60
2018-05-31T12:33:12.035Z,27.90
2018-05-31T12:35:40.272Z,27.90
2018-05-31T12:38:08.465Z,28.10
2018-05-31T12:40:37.502Z,28.00
2018-05-31T12:43:06.116Z,28.00
2018-05-31T12:45:34.372Z,28.10
2018-05-31T12:48:02.940Z,28.00
2018-05-31T12:50:31.147Z,28.00
2018-05-31T12:52:59.520Z,28.00
2018-05-31T12:55:27.740Z,28.10
2018-05-31T12:57:55.974Z,28.20
2018-05-31T13:00:24.201Z,28.20
2018-05-31T13:02:52.500Z,28.10
2018-05-31T13:05:20.749Z,28.20
2018-05-31T13:07:49.013Z,28.10
2018-05-31T13:10:18.159Z,27.90
2018-05-31T13:12:46.390Z,28.00
2018-05-31T13:15:14.690Z,28.10
2018-05-31T13:17:42.953Z,27.90
2018-05-31T13:20:11.524Z,27.80
2018-05-31T13:22:39.785Z,27.80
2018-05-31T13:25:08.167Z,28.00
2018-05-31T13:27:36.413Z,27.90
2018-05-31T13:30:05.806Z,28.10
2018-05-31T13:32:34.852Z,28.20
2018-05-31T13:35:03.212Z,28.20
2018-05-31T13:37:31.484Z,28.10
2018-05-31T13:40:00.444Z,27.90
2018-05-31T13:42:28.685Z,27.80
2018-05-31T13:44:56.934Z,28.10
2018-05-31T13:47:25.179Z,28.30
2018-05-31T13:49:54.198Z,28.50
2018-05-31T13:52:22.483Z,28.40
2018-05-31T13:54:50.700Z,28.70
2018-05-31T13:57:18.960Z,28.90
2018-05-31T13:59:47.231Z,28.70
2018-05-31T14:02:15.580Z,28.70
2018-05-31T14:04:44.007Z,28.70
2018-05-31T14:07:14.017Z,28.80
2018-05-31T14:09:42.647Z,28.80
2018-05-31T14:12:11.911Z,29.10
2018-05-31T14:14:40.196Z,29.10
2018-05-31T14:17:08.472Z,29.20
2018-05-31T14:19:37.659Z,29.10
2018-05-31T14:22:05.986Z,29.20
2018-05-31T14:24:34.209Z,29.10
2018-05-31T14:27:02.582Z,29.40
2018-05-31T14:29:30.783Z,29.20
2018-05-31T14:31:59.898Z,29.30
2018-05-31T14:34:28.129Z,29.20
2018-05-31T14:36:56.366Z,29.30
2018-05-31T14:39:24.643Z,29.20
2018-05-31T14:41:54.166Z,29.00
2018-05-31T14:44:23.066Z,29.00
2018-05-31T14:46:51.274Z,29.10
2018-05-31T14:49:20.285Z,29.30
2018-05-31T14:51:48.523Z,29.30
2018-05-31T14:54:16.841Z,29.20
2018-05-31T14:56:45.121Z,29.50
2018-05-31T14:59:13.584Z,29.70
2018-05-31T15:01:41.891Z,29.90
2018-05-31T15:04:10.144Z,30.30
2018-05-31T15:06:39.122Z,31.60
2018-05-31T15:09:07.372Z,31.50
2018-05-31T15:11:35.650Z,32.30
2018-05-31T15:14:04.265Z,32.50
2018-05-31T15:16:32.554Z,31.90
2018-05-31T15:19:00.789Z,32.00
2018-05-31T15:21:29.823Z,32.10
2018-05-31T15:23:58.068Z,32.00
2018-05-31T15:26:26.286Z,31.30
2018-05-31T15:28:54.520Z,30.90
2018-05-31T15:31:22.760Z,30.90
2018-05-31T15:33:50.990Z,31.80
2018-05-31T15:36:19.217Z,32.50
2018-05-31T15:38:47.541Z,33.90
2018-05-31T15:41:15.767Z,35.10
2018-05-31T15:43:44.009Z,36.10
2018-05-31T15:46:12.246Z,36.30
2018-05-31T15:48:40.825Z,34.00
2018-05-31T15:51:11.402Z,32.70
2018-05-31T15:53:39.602Z,32.70
2018-05-31T15:56:07.923Z,32.20
2018-05-31T15:58:36.165Z,32.00
2018-05-31T16:01:04.386Z,31.60
2018-05-31T16:03:32.723Z,31.00
2018-05-31T16:06:01.715Z,30.40
2018-05-31T16:08:30.720Z,29.90
2018-05-31T16:10:58.938Z,29.80
2018-05-31T16:13:27.169Z,29.80
2018-05-31T16:15:55.449Z,29.90
2018-05-31T16:18:23.690Z,30.20
2018-05-31T16:20:52.699Z,29.40
2018-05-31T16:23:22.541Z,29.40
2018-05-31T16:25:51.500Z,29.50
2018-05-31T16:28:19.720Z,29.50
2018-05-31T16:30:47.965Z,29.40
2018-05-31T16:33:16.179Z,29.40
2018-05-31T16:35:44.407Z,29.30
2018-05-31T16:38:12.636Z,29.40
2018-05-31T16:40:40.869Z,29.60
2018-05-31T16:43:09.394Z,29.60
2018-05-31T16:45:38.656Z,29.50
2018-05-31T16:48:06.873Z,29.50
2018-05-31T16:50:35.951Z,29.70
2018-05-31T16:53:04.157Z,29.70
2018-05-31T16:55:33.172Z,29.10
2018-05-31T16:58:01.398Z,29.10
2018-05-31T17:00:29.642Z,28.80
2018-05-31T17:02:57.919Z,29.00
2018-05-31T17:05:26.168Z,29.20
2018-05-31T17:07:54.413Z,29.20
2018-05-31T17:10:22.810Z,29.30
2018-05-31T17:12:51.819Z,29.50
2018-05-31T17:15:20.173Z,29.50
2018-05-31T17:17:49.235Z,29.60
2018-05-31T17:20:17.464Z,29.60
2018-05-31T17:22:45.741Z,29.40
2018-05-31T17:25:13.987Z,29.40
2018-05-31T17:27:43.004Z,29.30
2018-05-31T17:30:11.539Z,29.30
2018-05-31T17:32:39.770Z,29.30
2018-05-31T17:35:08.017Z,29.30
2018-05-31T17:37:37.036Z,29.00
2018-05-31T17:40:05.563Z,29.00
2018-05-31T17:42:33.788Z,29.10
2018-05-31T17:45:02.024Z,29.00
2018-05-31T17:47:30.253Z,29.10
2018-05-31T17:49:58.490Z,29.00
2018-05-31T17:52:27.470Z,28.90
2018-05-31T17:54:55.710Z,28.90
2018-05-31T17:57:23.916Z,28.90
2018-05-31T18:15:22.108Z,28.60
2018-05-31T18:17:51.117Z,28.60
2018-05-31T18:20:19.577Z,28.60
2018-05-31T18:22:47.841Z,28.70
2018-05-31T18:25:16.118Z,28.70
2018-05-31T18:27:45.097Z,28.60
2018-05-31T18:30:13.305Z,28.60
2018-05-31T18:32:41.537Z,28.50
2018-05-31T18:35:09.758Z,28.50
2018-05-31T18:37:38.011Z,28.50
2018-05-31T18:40:07.135Z,28.50
2018-05-31T18:42:35.359Z,28.50
2018-05-31T18:45:03.582Z,28.50
2018-05-31T18:47:31.854Z,28.40
2018-05-31T18:50:00.841Z,28.40
2018-05-31T18:52:29.837Z,28.40
2018-05-31T18:54:58.049Z,28.40
2018-05-31T18:57:26.293Z,28.30
2018-05-31T18:59:54.513Z,28.30
2018-05-31T19:02:22.791Z,28.40
2018-05-31T19:04:51.022Z,28.30
2018-05-31T19:07:19.246Z,28.10
2018-05-31T19:09:47.541Z,28.10
2018-05-31T19:12:15.805Z,28.10
2018-05-31T19:14:44.886Z,28.10
2018-05-31T19:17:13.098Z,28.10
2018-05-31T19:19:47.090Z,28.10
2018-05-31T19:22:15.325Z,28.10
2018-05-31T19:24:49.185Z,28.00
2018-05-31T19:27:17.633Z,28.00
2018-05-31T19:29:46.124Z,28.00
2018-05-31T19:32:14.360Z,28.00
2018-05-31T19:34:42.667Z,27.90
2018-05-31T19:37:14.305Z,27.80
2018-05-31T19:39:42.579Z,27.80
2018-05-31T19:42:16.597Z,27.80
2018-05-31T19:44:45.108Z,27.80
2018-05-31T19:47:13.374Z,27.80
2018-05-31T19:49:41.619Z,27.80
2018-05-31T19:52:15.598Z,27.80
2018-05-31T19:54:43.825Z,27.80
2018-05-31T19:57:12.273Z,27.70
2018-05-31T19:59:46.473Z,27.60
2018-05-31T20:02:20.344Z,27.60
2018-05-31T20:04:49.361Z,27.50
2018-05-31T20:07:17.641Z,27.50
2018-05-31T20:09:46.129Z,27.60
2018-05-31T20:12:15.354Z,27.50
2018-05-31T20:14:43.791Z,27.50
2018-05-31T20:17:12.023Z,27.50
2018-05-31T20:19:40.532Z,27.50
2018-05-31T20:22:09.541Z,27.40
2018-05-31T20:24:37.816Z,27.40
2018-05-31T20:27:06.236Z,27.40
2018-05-31T20:29:34.452Z,27.40
2018-05-31T20:32:02.698Z,27.40
2018-05-31T20:34:31.804Z,27.30
2018-05-31T20:37:01.061Z,27.30
2018-05-31T20:39:29.256Z,27.30
2018-05-31T20:41:57.480Z,27.30
2018-05-31T20:44:25.725Z,27.30
2018-05-31T20:46:55.333Z,27.20
2018-05-31T20:49:23.648Z,27.20
2018-05-31T20:51:52.259Z,27.20
2018-05-31T20:54:21.680Z,27.20
2018-05-31T20:56:50.025Z,27.20
2018-05-31T20:59:18.512Z,27.20
2018-05-31T21:01:46.904Z,27.20
2018-05-31T21:04:15.298Z,27.10
2018-05-31T21:06:43.611Z,27.20
2018-05-31T21:09:12.003Z,27.20
2018-05-31T21:11:40.276Z,27.10
2018-05-31T21:14:08.477Z,27.10
2018-05-31T21:16:36.756Z,27.10
2018-05-31T21:19:05.076Z,27.00
2018-05-31T21:21:33.513Z,26.90
2018-05-31T21:24:01.790Z,27.00
2018-05-31T21:26:30.114Z,27.00
2018-05-31T21:28:58.397Z,27.00
2018-05-31T21:31:26.804Z,27.00
2018-05-31T21:33:55.052Z,26.90
2018-05-31T21:36:23.387Z,26.90
2018-05-31T21:38:51.561Z,26.80
2018-05-31T21:41:20.586Z,26.70
2018-05-31T21:43:49.065Z,26.70
2018-05-31T21:46:17.276Z,26.80
2018-05-31T21:48:45.618Z,26.70
2018-05-31T21:51:13.825Z,26.60
2018-05-31T21:53:42.056Z,26.60
2018-05-31T21:56:10.302Z,26.60
2018-05-31T21:58:39.284Z,26.60
2018-05-31T22:01:07.532Z,26.60
2018-05-31T22:03:35.748Z,26.60
2018-05-31T22:06:04.771Z,26.40
2018-05-31T22:08:33.008Z,26.40
2018-05-31T22:11:02.765Z,26.40
2018-05-31T22:13:30.989Z,26.40
2018-05-31T22:15:59.242Z,26.50
2018-05-31T22:18:27.559Z,26.40
2018-05-31T22:20:56.609Z,26.40
2018-05-31T22:23:24.857Z,26.30
2018-05-31T22:25:53.080Z,26.40
2018-05-31T22:28:21.297Z,26.30
2018-05-31T22:30:49.543Z,26.40
2018-05-31T22:33:18.571Z,26.30
2018-05-31T22:38:21.662Z,26.40
2018-05-31T22:40:50.133Z,26.30
2018-05-31T22:43:18.450Z,25.80
2018-05-31T22:45:46.673Z,25.10
2018-05-31T22:48:15.658Z,23.70
2018-05-31T22:50:44.652Z,23.50
2018-05-31T22:53:13.628Z,23.40
2018-05-31T22:55:41.865Z,23.30
2018-05-31T22:58:10.245Z,23.50
2018-05-31T23:00:38.456Z,24.00
2018-05-31T23:03:06.871Z,23.00
2018-05-31T23:05:35.105Z,22.70
2018-05-31T23:08:03.322Z,22.00
2018-05-31T23:10:31.591Z,21.40
2018-05-31T23:13:00.589Z,21.00
2018-05-31T23:15:28.865Z,20.90
2018-05-31T23:17:57.100Z,20.90
2018-05-31T23:20:25.396Z,20.50
2018-05-31T23:22:54.393Z,19.90
2018-05-31T23:25:23.390Z,19.70
2018-05-31T23:27:52.428Z,19.50
2018-05-31T23:30:20.698Z,19.40
2018-05-31T23:32:48.890Z,19.70
2018-05-31T23:35:17.108Z,19.80
2018-05-31T23:37:45.386Z,20.00
2018-05-31T23:40:13.738Z,20.70
2018-05-31T23:42:41.967Z,20.90
2018-05-31T23:45:10.178Z,20.80
2018-05-31T23:47:38.591Z,20.70
2018-05-31T23:50:07.022Z,20.60
2018-05-31T23:52:35.259Z,20.30
2018-05-31T23:55:03.473Z,19.70
2018-05-31T23:57:31.785Z,18.70
